Time;durP1;ratioP1;P1;durP2;ratioP2;P2;SDS_P1;SDS_P2;PMS_P1;PMS_P2;Temp;Humidity;BMP_temperature;BMP_pressure;BME280_temperature;BME280_humidity;BME280_pressure;Samples;Min_cycle;Max_cycle;Signal;HPM_P1;HPM_P2
2023/05/10 00:01:37;;;;;;;4.70;3.05;;;14.00;88.10;;;;;;5026725;28;20041;-62
2023/05/10 00:04:03;;;;;;;5.47;2.75;;;14.00;88.20;;;;;;5027986;28;20028;-62
2023/05/10 00:06:29;;;;;;;4.30;3.13;;;14.00;88.40;;;;;;5027291;28;20111;-62
2023/05/10 00:08:55;;;;;;;5.07;3.40;;;13.90;88.50;;;;;;5027909;28;20029;-62
2023/05/10 00:11:20;;;;;;;6.30;2.60;;;13.90;88.90;;;;;;5027069;28;20480;-61
2023/05/10 00:13:47;;;;;;;5.53;2.95;;;13.90;89.10;;;;;;5010723;28;20391;-61
2023/05/10 00:16:12;;;;;;;3.75;2.72;;;13.90;90.00;;;;;;5008264;28;20056;-61
2023/05/10 00:18:39;;;;;;;3.50;2.55;;;13.80;89.90;;;;;;5028037;28;20507;-63
2023/05/10 00:21:05;;;;;;;5.28;3.17;;;13.80;89.70;;;;;;5028519;28;20033;-61
2023/05/10 00:23:30;;;;;;;3.83;2.85;;;13.80;90.10;;;;;;5028928;28;20045;-63
2023/05/10 00:25:56;;;;;;;5.03;2.95;;;13.80;90.50;;;;;;5029021;28;20037;-62
2023/05/10 00:28:21;;;;;;;5.47;3.20;;;13.70;90.20;;;;;;5032419;28;20037;-61
2023/05/10 00:30:47;;;;;;;2.90;2.60;;;13.70;90.50;;;;;;5032766;28;20057;-61
2023/05/10 00:33:13;;;;;;;3.33;3.03;;;13.70;90.50;;;;;;5032284;28;20064;-61
2023/05/10 00:35:38;;;;;;;5.03;3.15;;;13.70;90.50;;;;;;5014671;28;20071;-62
2023/05/10 00:38:04;;;;;;;4.85;3.60;;;13.70;90.80;;;;;;5015259;28;20421;-61
2023/05/10 00:40:30;;;;;;;3.10;2.78;;;13.60;90.80;;;;;;5033303;28;20487;-62
2023/05/10 00:42:56;;;;;;;3.00;2.80;;;13.60;91.00;;;;;;5031811;28;20028;-62
2023/05/10 00:45:22;;;;;;;3.35;3.05;;;13.60;91.30;;;;;;5031579;28;20025;-61
2023/05/10 00:47:48;;;;;;;3.10;2.50;;;13.50;91.30;;;;;;5030393;28;20667;-62
2023/05/10 00:50:15;;;;;;;6.60;3.38;;;13.40;91.50;;;;;;5031158;28;20075;-62
2023/05/10 00:52:42;;;;;;;5.55;3.30;;;13.40;91.30;;;;;;5030923;28;20057;-62
2023/05/10 00:55:09;;;;;;;5.13;2.75;;;13.40;91.80;;;;;;5013533;28;20025;-62
2023/05/10 00:57:34;;;;;;;3.55;3.00;;;13.40;91.80;;;;;;5030927;28;20064;-62
2023/05/10 01:00:02;;;;;;;3.08;2.75;;;13.30;92.00;;;;;;5011348;28;20071;-62
2023/05/10 01:02:27;;;;;;;4.35;3.05;;;13.30;91.90;;;;;;5028811;28;20045;-62
2023/05/10 01:04:54;;;;;;;5.72;3.28;;;13.30;92.10;;;;;;5029921;28;20035;-62
2023/05/10 01:07:19;;;;;;;4.88;2.97;;;13.30;92.30;;;;;;5013679;28;20104;-62
2023/05/10 01:09:45;;;;;;;4.82;3.55;;;13.20;92.30;;;;;;5013969;28;20128;-63
2023/05/10 01:12:11;;;;;;;4.40;2.88;;;13.20;92.50;;;;;;5031283;28;20057;-62
2023/05/10 01:14:37;;;;;;;3.63;2.78;;;13.20;92.50;;;;;;5031914;28;20029;-60
2023/05/10 01:17:05;;;;;;;4.53;3.00;;;13.20;92.40;;;;;;5030986;28;20018;-61
2023/05/10 01:19:34;;;;;;;4.65;2.90;;;13.20;92.40;;;;;;5031052;28;20048;-61
2023/05/10 01:22:31;;;;;;;4.03;2.90;;;13.20;92.70;;;;;;5031273;28;20296;-62
2023/05/10 01:25:26;;;;;;;4.70;2.85;;;13.20;92.80;;;;;;5047015;22;20464;-56
2023/05/10 01:28:09;;;;;;;4.32;2.97;;;13.10;93.10;;;;;;5047269;28;20033;-54
2023/05/10 01:30:56;;;;;;;4.40;2.80;;;13.00;92.90;;;;;;5048023;28;20425;-58
2023/05/10 01:33:28;;;;;;;4.35;2.85;;;13.00;93.40;;;;;;5048928;28;20040;-53
2023/05/10 01:36:25;;;;;;;2.92;2.63;;;13.00;93.40;;;;;;5048608;28;20491;-54
2023/05/10 01:39:09;;;;;;;3.53;2.90;;;12.90;93.60;;;;;;5048775;28;20403;-53
2023/05/10 01:42:02;;;;;;;4.63;3.38;;;12.90;93.90;;;;;;5049419;28;20044;-55
2023/05/10 01:44:37;;;;;;;3.15;2.70;;;12.80;94.30;;;;;;5048100;28;20398;-56
2023/05/10 01:47:09;;;;;;;5.40;3.25;;;12.80;94.20;;;;;;5049345;28;20021;-52
2023/05/10 01:49:41;;;;;;;4.97;3.50;;;12.80;94.40;;;;;;5049378;28;20029;-57
2023/05/10 01:52:11;;;;;;;2.97;2.70;;;12.70;94.40;;;;;;5048162;28;20103;-54
2023/05/10 01:54:55;;;;;;;5.93;3.17;;;12.70;94.50;;;;;;5049088;28;20352;-57
2023/05/10 01:57:24;;;;;;;4.43;3.47;;;12.60;94.50;;;;;;5047639;28;20021;-54
2023/05/10 01:59:51;;;;;;;6.10;3.38;;;12.60;94.60;;;;;;5048659;28;20491;-55
2023/05/10 02:02:20;;;;;;;6.70;3.10;;;12.60;94.70;;;;;;5038511;28;20044;-52
2023/05/10 02:04:47;;;;;;;7.68;3.47;;;12.60;95.00;;;;;;5048314;28;20086;-56
2023/05/10 02:07:15;;;;;;;4.57;2.97;;;12.50;95.20;;;;;;5049220;28;20093;-56
2023/05/10 02:09:42;;;;;;;3.55;2.92;;;12.50;95.30;;;;;;5048109;28;20029;-57
2023/05/10 02:12:09;;;;;;;3.55;3.22;;;12.50;95.40;;;;;;5048767;28;20090;-58
2023/05/10 02:14:37;;;;;;;4.28;3.05;;;12.50;95.50;;;;;;5038785;28;20017;-51
2023/05/10 02:17:06;;;;;;;4.53;3.17;;;12.40;95.60;;;;;;5048361;28;20021;-57
2023/05/10 02:19:33;;;;;;;5.97;3.25;;;12.40;95.70;;;;;;5049074;28;20037;-54
2023/05/10 02:22:02;;;;;;;3.60;3.10;;;12.40;95.80;;;;;;5048651;28;20063;-56
2023/05/10 02:24:29;;;;;;;7.15;3.10;;;12.40;95.90;;;;;;5048846;28;20029;-52
2023/05/10 02:26:55;;;;;;;4.03;3.20;;;12.30;95.90;;;;;;5047776;28;20103;-53
2023/05/10 02:29:24;;;;;;;3.13;2.83;;;12.30;96.00;;;;;;5048774;28;20032;-55
2023/05/10 02:31:52;;;;;;;6.63;3.22;;;12.30;96.20;;;;;;5048025;28;20028;-57
2023/05/10 02:34:18;;;;;;;4.88;2.70;;;12.30;96.30;;;;;;5048482;28;20051;-56
2023/05/10 02:36:44;;;;;;;4.45;3.20;;;12.30;96.40;;;;;;5048404;28;20087;-56
2023/05/10 02:39:13;;;;;;;3.13;2.83;;;12.30;96.40;;;;;;5038680;28;20029;-54
2023/05/10 02:41:40;;;;;;;3.47;2.83;;;12.20;96.50;;;;;;5030686;28;20032;-54
2023/05/10 02:44:08;;;;;;;5.80;3.70;;;12.20;96.60;;;;;;5048718;28;20120;-53
2023/05/10 02:46:34;;;;;;;3.95;3.08;;;12.20;96.80;;;;;;5047878;28;20021;-56
2023/05/10 02:49:00;;;;;;;3.55;3.17;;;12.20;96.80;;;;;;5047445;28;20108;-56
2023/05/10 02:51:31;;;;;;;4.95;3.13;;;12.10;96.90;;;;;;5048337;28;20040;-54
2023/05/10 02:54:01;;;;;;;4.82;3.05;;;12.10;97.10;;;;;;5048215;28;20434;-53
2023/05/10 02:56:34;;;;;;;3.88;2.83;;;12.10;97.20;;;;;;5047808;28;20029;-54
2023/05/10 02:58:59;;;;;;;5.45;3.22;;;12.10;97.40;;;;;;5048181;28;20021;-56
2023/05/10 03:01:25;;;;;;;3.28;2.95;;;12.00;97.60;;;;;;5047382;28;20057;-55
2023/05/10 03:03:51;;;;;;;4.82;3.45;;;12.00;97.70;;;;;;5048474;28;20032;-54
2023/05/10 03:06:16;;;;;;;3.97;3.33;;;12.00;97.90;;;;;;5047586;28;20035;-58
2023/05/10 03:08:44;;;;;;;5.07;3.55;;;12.00;98.20;;;;;;5047276;28;20048;-54
2023/05/10 03:11:37;;;;;;;3.60;2.83;;;11.90;98.20;;;;;;5048466;28;20229;-52
2023/05/10 03:14:24;;;;;;;5.75;2.92;;;11.90;98.40;;;;;;5047835;28;20078;-54
2023/05/10 03:17:01;;;;;;;3.78;2.90;;;11.90;98.60;;;;;;5047218;28;20032;-54
2023/05/10 03:19:32;;;;;;;4.85;3.42;;;11.80;98.60;;;;;;5047913;28;20033;-53
2023/05/10 03:22:03;;;;;;;4.32;3.05;;;11.80;98.90;;;;;;5047658;28;20025;-53
2023/05/10 03:24:30;;;;;;;6.35;3.28;;;11.80;99.10;;;;;;5036108;28;20056;-58
2023/05/10 03:26:58;;;;;;;3.55;3.25;;;11.80;99.00;;;;;;5046106;28;20028;-54
2023/05/10 03:29:26;;;;;;;3.20;2.90;;;11.80;99.00;;;;;;5029798;28;20513;-55
2023/05/10 03:31:51;;;;;;;3.88;3.15;;;11.80;99.60;;;;;;5044330;28;20052;-54
2023/05/10 03:34:23;;;;;;;5.47;3.42;;;11.80;99.80;;;;;;5047994;28;20064;-51
2023/05/10 03:36:48;;;;;;;3.75;2.83;;;11.80;99.90;;;;;;5046800;28;20025;-56
2023/05/10 03:39:14;;;;;;;6.15;3.85;;;11.70;99.70;;;;;;5047249;28;20120;-52
2023/05/10 03:41:39;;;;;;;3.70;3.25;;;11.70;99.70;;;;;;5047439;28;20056;-52
2023/05/10 03:44:05;;;;;;;3.30;3.00;;;11.70;99.90;;;;;;5046873;28;20033;-54
2023/05/10 03:46:30;;;;;;;5.22;3.47;;;11.70;99.90;;;;;;5046381;28;20503;-57
2023/05/10 03:48:56;;;;;;;4.30;2.88;;;11.70;99.90;;;;;;5046998;28;20067;-53
2023/05/10 03:51:27;;;;;;;4.20;3.47;;;11.60;99.90;;;;;;5046792;28;20032;-58
2023/05/10 03:53:53;;;;;;;5.03;3.38;;;11.60;99.90;;;;;;5046941;28;20387;-53
2023/05/10 03:56:20;;;;;;;4.15;3.40;;;11.60;99.90;;;;;;5047268;28;20442;-53
2023/05/10 03:58:46;;;;;;;3.67;3.30;;;11.60;99.90;;;;;;5047821;28;20463;-53
2023/05/10 04:01:12;;;;;;;4.13;3.30;;;11.60;99.90;;;;;;5048132;28;20124;-54
2023/05/10 04:03:38;;;;;;;4.53;3.03;;;11.60;99.90;;;;;;5050766;28;20040;-56
2023/05/10 04:06:04;;;;;;;4.55;3.42;;;11.70;99.90;;;;;;5050652;28;20110;-56
2023/05/10 04:08:30;;;;;;;4.97;3.45;;;11.70;99.90;;;;;;5050572;28;20549;-52
2023/05/10 04:11:08;;;;;;;3.25;2.95;;;11.70;99.90;;;;;;5051235;28;20112;-52
2023/05/10 04:13:34;;;;;;;3.95;3.17;;;11.70;99.90;;;;;;5050608;28;20025;-55
2023/05/10 04:16:00;;;;;;;3.53;3.10;;;11.70;99.90;;;;;;5050933;28;20025;-57
2023/05/10 04:18:26;;;;;;;4.00;3.47;;;11.70;99.90;;;;;;5050320;28;20433;-53
2023/05/10 04:20:51;;;;;;;4.55;3.03;;;11.70;99.90;;;;;;5035050;28;20334;-54
2023/05/10 04:23:17;;;;;;;6.63;3.63;;;11.70;99.90;;;;;;5032676;28;20025;-53
2023/05/10 04:25:43;;;;;;;5.93;3.55;;;11.70;99.90;;;;;;5051354;28;20071;-54
2023/05/10 04:28:09;;;;;;;4.10;3.10;;;11.80;99.90;;;;;;5049878;28;20064;-53
2023/05/10 04:30:37;;;;;;;3.92;3.00;;;11.80;99.90;;;;;;5049830;28;20045;-54
2023/05/10 04:33:03;;;;;;;3.67;3.10;;;11.80;99.90;;;;;;5040446;28;20025;-56
2023/05/10 04:35:28;;;;;;;4.40;3.17;;;11.80;99.90;;;;;;5049922;28;20048;-55
2023/05/10 04:37:54;;;;;;;3.15;2.85;;;11.80;99.90;;;;;;5050392;28;20021;-56
2023/05/10 04:40:20;;;;;;;5.53;3.33;;;11.90;99.90;;;;;;5039994;28;20510;-53
2023/05/10 04:42:46;;;;;;;3.78;3.45;;;11.90;99.90;;;;;;5050293;28;20064;-52
2023/05/10 04:45:12;;;;;;;3.90;3.00;;;11.90;99.90;;;;;;5050318;28;20375;-53
2023/05/10 04:47:38;;;;;;;7.28;3.67;;;11.90;99.90;;;;;;5049979;28;20044;-54
2023/05/10 04:50:04;;;;;;;4.22;2.90;;;12.00;99.90;;;;;;5050727;28;20430;-52
2023/05/10 04:52:29;;;;;;;6.15;3.67;;;12.00;99.90;;;;;;5031439;28;20025;-53
2023/05/10 04:54:55;;;;;;;2.92;2.72;;;12.00;99.90;;;;;;5050616;28;20029;-55
2023/05/10 04:57:21;;;;;;;3.17;2.88;;;12.00;99.90;;;;;;5049311;28;20021;-53
2023/05/10 04:59:46;;;;;;;4.25;3.80;;;12.00;99.90;;;;;;5050529;28;20031;-54
2023/05/10 05:02:12;;;;;;;13.82;3.60;;;12.10;99.90;;;;;;5049600;28;20171;-51
2023/05/10 05:04:37;;;;;;;3.85;3.05;;;12.10;99.90;;;;;;5050340;28;20033;-52
2023/05/10 05:07:03;;;;;;;5.25;3.72;;;12.10;99.90;;;;;;5049867;28;20037;-52
2023/05/10 05:09:28;;;;;;;5.35;3.28;;;12.20;99.90;;;;;;5048949;28;20225;-53
2023/05/10 05:11:54;;;;;;;4.07;3.28;;;12.30;99.90;;;;;;5049299;28;20028;-52
2023/05/10 05:14:24;;;;;;;3.90;3.42;;;12.30;99.90;;;;;;5049326;28;20061;-57
2023/05/10 05:16:51;;;;;;;4.65;3.63;;;12.40;99.90;;;;;;5049078;28;20079;-52
2023/05/10 05:19:16;;;;;;;3.58;3.20;;;12.40;99.90;;;;;;5049568;28;20043;-54
2023/05/10 05:21:42;;;;;;;5.03;3.92;;;12.60;99.90;;;;;;5049934;28;20013;-53
2023/05/10 05:24:07;;;;;;;5.55;3.30;;;12.60;99.90;;;;;;5049831;28;20461;-53
2023/05/10 05:26:33;;;;;;;3.75;3.38;;;12.70;99.90;;;;;;5049322;28;20037;-52
2023/05/10 05:28:59;;;;;;;4.82;3.92;;;12.80;99.90;;;;;;5049322;28;20056;-52
2023/05/10 05:31:24;;;;;;;3.35;3.05;;;12.80;99.90;;;;;;5048762;28;20061;-53
2023/05/10 05:33:50;;;;;;;3.88;3.35;;;12.90;99.90;;;;;;5049195;28;20021;-53
2023/05/10 05:36:16;;;;;;;3.20;2.95;;;13.00;99.90;;;;;;5049402;28;20190;-53
2023/05/10 05:38:42;;;;;;;5.55;3.60;;;13.10;99.90;;;;;;5030618;28;20021;-53
2023/05/10 05:41:08;;;;;;;4.18;3.35;;;13.10;99.90;;;;;;5049677;28;20086;-55
2023/05/10 05:43:33;;;;;;;3.72;3.38;;;13.20;99.90;;;;;;5048958;28;20245;-52
2023/05/10 05:45:59;;;;;;;4.80;3.42;;;13.20;99.90;;;;;;5031674;28;20021;-52
2023/05/10 05:48:25;;;;;;;5.05;3.17;;;13.30;99.90;;;;;;5048816;28;20024;-55
2023/05/10 05:50:55;;;;;;;4.15;3.38;;;13.40;99.90;;;;;;5049000;28;20487;-54
2023/05/10 05:53:21;;;;;;;5.13;3.50;;;13.40;99.90;;;;;;5048318;28;20029;-53
2023/05/10 05:55:57;;;;;;;3.88;3.40;;;13.50;99.90;;;;;;5048740;28;20029;-52
2023/05/10 05:58:24;;;;;;;4.40;3.00;;;13.60;99.70;;;;;;5048639;28;20021;-52
2023/05/10 06:00:50;;;;;;;6.53;3.58;;;13.70;98.80;;;;;;5047875;28;20040;-59
2023/05/10 06:03:16;;;;;;;4.90;3.55;;;13.80;98.40;;;;;;5048530;28;20384;-56
2023/05/10 06:05:41;;;;;;;4.65;3.75;;;13.90;98.90;;;;;;5048476;28;20056;-57
2023/05/10 06:08:07;;;;;;;5.78;3.58;;;14.00;98.00;;;;;;5048196;28;20029;-56
2023/05/10 06:10:33;;;;;;;5.93;3.65;;;14.10;98.20;;;;;;5048798;28;20033;-58
2023/05/10 06:12:58;;;;;;;6.88;3.70;;;14.30;97.20;;;;;;5048987;28;20046;-58
2023/05/10 06:15:24;;;;;;;5.15;3.55;;;14.40;97.50;;;;;;5048570;28;20017;-56
2023/05/10 06:17:49;;;;;;;4.28;3.33;;;14.60;98.20;;;;;;5048517;28;20028;-55
2023/05/10 06:20:15;;;;;;;4.30;3.90;;;14.80;96.90;;;;;;5048741;28;20035;-56
2023/05/10 06:22:41;;;;;;;4.32;3.45;;;14.90;96.30;;;;;;5048602;28;20025;-56
2023/05/10 06:25:07;;;;;;;4.07;3.25;;;15.00;96.50;;;;;;5047401;28;20025;-55
2023/05/10 06:27:33;;;;;;;4.57;3.38;;;15.20;96.50;;;;;;5030273;28;20024;-53
2023/05/10 06:29:58;;;;;;;4.55;3.47;;;15.40;95.80;;;;;;5031928;28;20108;-56
2023/05/10 06:32:24;;;;;;;5.05;3.47;;;15.50;94.70;;;;;;5048520;28;20029;-59
2023/05/10 06:34:50;;;;;;;6.80;3.35;;;15.60;95.20;;;;;;5048200;28;20043;-52
2023/05/10 06:37:15;;;;;;;4.97;3.03;;;15.80;94.90;;;;;;5048032;28;20122;-54
2023/05/10 06:39:41;;;;;;;4.95;3.58;;;15.90;94.80;;;;;;5047866;28;20021;-52
2023/05/10 06:42:06;;;;;;;6.55;3.53;;;16.00;95.00;;;;;;5047746;28;20029;-56
2023/05/10 06:44:32;;;;;;;3.53;3.05;;;16.20;93.80;;;;;;5047984;28;20037;-55
2023/05/10 06:46:58;;;;;;;3.42;3.13;;;16.30;94.10;;;;;;5048031;28;20035;-57
2023/05/10 06:49:23;;;;;;;3.33;3.03;;;16.40;94.40;;;;;;5047106;28;20021;-53
2023/05/10 06:51:49;;;;;;;3.75;3.00;;;16.50;94.80;;;;;;5047802;28;20035;-56
2023/05/10 06:54:14;;;;;;;5.05;3.67;;;16.70;94.40;;;;;;5032361;28;20032;-55
2023/05/10 06:56:40;;;;;;;3.78;3.47;;;16.80;93.20;;;;;;5047924;28;20031;-54
2023/05/10 06:59:05;;;;;;;3.20;2.92;;;16.90;94.20;;;;;;5047183;28;20040;-55
2023/05/10 07:01:31;;;;;;;5.28;3.45;;;17.00;93.50;;;;;;5047544;28;20057;-56
2023/05/10 07:03:56;;;;;;;4.00;3.70;;;17.10;92.40;;;;;;5047658;28;20054;-53
2023/05/10 07:06:22;;;;;;;4.13;3.72;;;16.90;93.60;;;;;;5047072;28;20116;-56
2023/05/10 07:08:47;;;;;;;8.20;3.70;;;16.70;93.20;;;;;;5031242;28;20025;-56
2023/05/10 07:11:13;;;;;;;4.50;3.47;;;16.60;93.60;;;;;;5048004;28;20017;-58
2023/05/10 07:13:41;;;;;;;3.75;3.13;;;16.60;93.20;;;;;;5047752;28;20028;-54
2023/05/10 07:16:07;;;;;;;3.72;3.42;;;16.80;93.10;;;;;;5047684;28;20479;-56
2023/05/10 07:18:33;;;;;;;4.05;3.03;;;17.00;93.50;;;;;;5047723;28;20028;-56
2023/05/10 07:20:59;;;;;;;5.72;3.22;;;17.00;92.40;;;;;;5047112;28;20147;-58
2023/05/10 07:23:24;;;;;;;5.30;3.47;;;17.00;92.80;;;;;;5031693;28;20033;-55
2023/05/10 07:25:53;;;;;;;3.72;3.38;;;17.10;93.40;;;;;;5047100;28;20107;-57
2023/05/10 07:28:19;;;;;;;5.30;2.92;;;17.20;93.60;;;;;;5047256;28;20029;-55
2023/05/10 07:30:45;;;;;;;5.05;3.40;;;17.40;92.80;;;;;;5047284;28;20044;-57
2023/05/10 07:33:14;;;;;;;4.10;3.70;;;17.40;92.90;;;;;;5047515;28;20029;-54
2023/05/10 07:35:40;;;;;;;4.60;3.13;;;17.40;92.50;;;;;;5049058;28;20102;-58
2023/05/10 07:38:05;;;;;;;3.75;3.45;;;17.50;91.70;;;;;;5050253;28;20499;-55
2023/05/10 07:40:31;;;;;;;4.40;4.00;;;17.60;91.40;;;;;;5051193;28;20029;-57
2023/05/10 07:42:57;;;;;;;4.05;3.13;;;17.50;91.70;;;;;;5051558;28;20025;-57
2023/05/10 07:45:23;;;;;;;3.85;3.38;;;17.50;92.40;;;;;;5050764;28;20545;-57
2023/05/10 07:47:48;;;;;;;3.33;3.03;;;17.60;92.60;;;;;;5050499;28;20032;-56
2023/05/10 07:50:14;;;;;;;3.53;3.22;;;17.70;93.10;;;;;;5049991;28;20029;-57
2023/05/10 07:52:40;;;;;;;3.92;3.25;;;17.80;92.70;;;;;;5050853;28;20032;-58
2023/05/10 07:55:07;;;;;;;5.25;3.38;;;17.80;92.10;;;;;;5051518;28;20025;-56
2023/05/10 07:57:36;;;;;;;3.75;3.38;;;17.90;92.90;;;;;;5050316;28;20538;-58
2023/05/10 08:00:02;;;;;;;6.32;3.58;;;17.90;93.10;;;;;;5050299;28;20041;-58
2023/05/10 08:02:28;;;;;;;4.03;3.63;;;17.90;93.10;;;;;;5049133;28;20061;-57
2023/05/10 08:04:53;;;;;;;3.63;2.72;;;17.80;92.00;;;;;;5033262;28;20059;-56
2023/05/10 08:07:19;;;;;;;3.40;3.00;;;18.00;92.50;;;;;;5050282;28;20033;-58
2023/05/10 08:09:45;;;;;;;8.88;3.60;;;18.10;92.40;;;;;;5033704;28;20033;-57
2023/05/10 08:12:10;;;;;;;3.72;3.28;;;18.20;92.60;;;;;;5050380;28;20033;-56
2023/05/10 08:14:38;;;;;;;5.13;2.90;;;18.20;92.20;;;;;;5050327;28;20086;-57
2023/05/10 08:17:04;;;;;;;3.88;3.42;;;18.30;92.80;;;;;;5050247;28;20161;-58
2023/05/10 08:19:30;;;;;;;4.75;3.65;;;18.30;92.90;;;;;;5050958;28;20542;-58
2023/05/10 08:21:56;;;;;;;3.70;3.40;;;18.30;92.00;;;;;;5050830;28;20032;-59
2023/05/10 08:24:22;;;;;;;4.75;3.10;;;18.30;91.20;;;;;;5050799;28;20031;-60
2023/05/10 08:26:47;;;;;;;4.80;3.80;;;18.30;91.60;;;;;;5048818;28;20058;-57
2023/05/10 08:29:14;;;;;;;4.18;3.78;;;18.20;91.70;;;;;;5050176;28;20037;-57
2023/05/10 08:31:39;;;;;;;4.03;3.40;;;18.10;91.50;;;;;;5049298;28;20437;-59
2023/05/10 08:34:05;;;;;;;3.63;3.33;;;18.10;91.90;;;;;;5051075;28;20047;-57
2023/05/10 08:36:31;;;;;;;3.65;3.03;;;18.10;92.50;;;;;;5049539;28;20104;-56
2023/05/10 08:38:57;;;;;;;5.40;3.38;;;18.00;92.30;;;;;;5049654;28;20031;-58
2023/05/10 08:41:25;;;;;;;5.05;3.08;;;18.00;93.20;;;;;;5049840;28;20108;-58
2023/05/10 08:43:51;;;;;;;3.70;3.40;;;18.00;93.50;;;;;;5049675;28;20113;-57
2023/05/10 08:46:19;;;;;;;4.05;3.17;;;18.00;93.00;;;;;;5050048;28;20025;-57
2023/05/10 08:48:46;;;;;;;3.38;3.08;;;18.00;92.70;;;;;;5047962;28;20475;-56
2023/05/10 08:51:14;;;;;;;3.42;3.13;;;18.10;92.30;;;;;;5049868;28;20029;-57
2023/05/10 08:53:40;;;;;;;3.50;3.20;;;18.10;92.90;;;;;;5050203;28;20035;-56
2023/05/10 08:56:06;;;;;;;3.80;3.50;;;18.20;93.10;;;;;;5049853;28;20458;-56
2023/05/10 08:58:32;;;;;;;3.83;3.05;;;18.20;92.00;;;;;;5049671;28;20112;-56
2023/05/10 09:00:59;;;;;;;3.88;3.40;;;18.20;92.30;;;;;;5049644;28;20127;-57
2023/05/10 09:03:24;;;;;;;4.07;3.38;;;18.30;91.70;;;;;;5049727;28;20116;-58
2023/05/10 09:05:50;;;;;;;3.83;3.42;;;18.30;91.80;;;;;;5050281;28;20487;-58
2023/05/10 09:08:17;;;;;;;5.85;3.28;;;18.30;92.80;;;;;;5049578;28;20037;-57
2023/05/10 09:10:43;;;;;;;4.57;4.05;;;18.30;91.30;;;;;;5049579;28;20027;-57
2023/05/10 09:13:11;;;;;;;7.47;3.80;;;18.40;92.80;;;;;;5049725;28;20025;-57
2023/05/10 09:15:37;;;;;;;5.47;3.70;;;18.40;92.50;;;;;;5050360;28;20029;-58
2023/05/10 09:18:03;;;;;;;4.60;3.70;;;18.50;92.00;;;;;;5049600;28;20487;-54
2023/05/10 09:20:28;;;;;;;6.15;4.28;;;18.50;92.40;;;;;;5049442;28;20024;-53
2023/05/10 09:22:54;;;;;;;3.67;3.35;;;18.60;91.90;;;;;;5049137;28;20028;-57
2023/05/10 09:25:19;;;;;;;5.50;3.97;;;18.60;91.80;;;;;;5049339;28;20040;-54
2023/05/10 09:27:47;;;;;;;3.83;3.40;;;18.80;92.20;;;;;;5049618;28;20112;-57
2023/05/10 09:30:27;;;;;;;3.83;3.50;;;18.80;92.50;;;;;;5048825;28;20064;-57
2023/05/10 09:32:53;;;;;;;4.32;3.90;;;18.80;90.80;;;;;;5050395;28;20021;-58
2023/05/10 09:35:21;;;;;;;3.78;3.38;;;18.80;91.70;;;;;;5049111;28;20037;-56
2023/05/10 09:37:49;;;;;;;3.85;3.53;;;18.80;91.60;;;;;;5049182;28;20493;-56
2023/05/10 09:40:18;;;;;;;4.18;3.30;;;18.90;90.70;;;;;;5049158;28;20037;-56
2023/05/10 09:42:55;;;;;;;4.82;3.75;;;18.80;91.80;;;;;;5049527;28;20024;-53
2023/05/10 09:45:22;;;;;;;7.25;4.20;;;18.90;92.00;;;;;;5049051;28;20525;-54
2023/05/10 09:47:48;;;;;;;6.28;4.05;;;18.80;91.00;;;;;;5048219;28;20036;-53
2023/05/10 09:50:14;;;;;;;5.60;3.45;;;18.80;92.00;;;;;;5048860;28;20091;-54
2023/05/10 09:52:58;;;;;;;4.55;4.15;;;18.60;92.20;;;;;;5049253;28;20491;-53
2023/05/10 09:55:38;;;;;;;4.20;3.78;;;18.50;91.90;;;;;;5030526;28;20025;-56
2023/05/10 09:58:04;;;;;;;6.10;3.75;;;18.30;93.00;;;;;;5047972;28;20025;-54
2023/05/10 10:00:35;;;;;;;4.32;3.92;;;18.30;92.40;;;;;;5048423;28;20044;-54
2023/05/10 10:03:01;;;;;;;3.80;3.47;;;18.20;92.70;;;;;;5048963;28;20017;-52
2023/05/10 10:05:31;;;;;;;4.40;3.60;;;18.20;93.50;;;;;;5048797;28;20056;-55
2023/05/10 10:08:00;;;;;;;6.43;3.97;;;18.30;94.80;;;;;;5048499;28;20372;-54
2023/05/10 10:10:27;;;;;;;4.40;4.00;;;18.40;94.20;;;;;;5048765;28;20096;-53
2023/05/10 10:12:53;;;;;;;6.80;4.53;;;18.50;93.50;;;;;;5048388;28;20032;-56
2023/05/10 10:15:21;;;;;;;6.38;4.45;;;18.50;92.00;;;;;;5048699;28;20111;-53
2023/05/10 10:17:47;;;;;;;5.22;4.53;;;18.30;92.20;;;;;;5048410;28;20527;-56
2023/05/10 10:20:14;;;;;;;5.07;3.72;;;18.30;93.10;;;;;;5049318;28;20029;-55
2023/05/10 10:22:39;;;;;;;5.82;4.22;;;18.20;94.10;;;;;;5048532;28;20074;-51
2023/05/10 10:25:05;;;;;;;7.60;3.92;;;18.20;95.90;;;;;;5031155;28;20029;-56
2023/05/10 10:27:43;;;;;;;5.38;4.88;;;18.10;96.20;;;;;;5048213;28;20021;-56
2023/05/10 10:30:16;;;;;;;6.40;4.97;;;18.00;97.10;;;;;;5047991;28;20040;-53
2023/05/10 10:33:19;;;;;;;10.05;5.07;;;17.80;98.30;;;;;;5048064;28;20020;-54
2023/05/10 10:35:46;;;;;;;5.20;4.70;;;17.50;99.90;;;;;;5047660;28;20029;-58
2023/05/10 10:38:13;;;;;;;6.53;5.47;;;17.20;99.90;;;;;;5030114;28;20064;-51
2023/05/10 10:40:38;;;;;;;9.80;6.43;;;17.00;99.90;;;;;;5048418;28;20028;-58
2023/05/10 10:43:24;;;;;;;6.53;5.78;;;16.70;99.90;;;;;;5048559;28;20399;-54
2023/05/10 10:46:13;;;;;;;9.93;6.05;;;16.50;99.90;;;;;;5048347;28;20419;-57
2023/05/10 10:48:51;;;;;;;7.07;6.38;;;16.30;99.90;;;;;;5047981;28;20115;-50
2023/05/10 10:51:16;;;;;;;8.45;6.43;;;16.20;99.90;;;;;;5048776;28;20029;-54
2023/05/10 10:53:43;;;;;;;7.70;6.93;;;16.10;99.90;;;;;;5047997;28;20039;-51
2023/05/10 10:56:10;;;;;;;6.60;5.90;;;16.00;99.90;;;;;;5047648;28;20033;-50
2023/05/10 10:58:38;;;;;;;6.47;5.88;;;15.90;99.90;;;;;;5047669;28;20017;-52
2023/05/10 11:01:17;;;;;;;7.65;5.68;;;15.90;99.90;;;;;;5036261;28;20167;-53
2023/05/10 11:04:02;;;;;;;7.55;6.80;;;15.80;99.90;;;;;;5048144;28;20045;-51
2023/05/10 11:06:35;;;;;;;7.75;6.38;;;15.80;99.90;;;;;;5036551;28;20045;-52
2023/05/10 11:09:12;;;;;;;7.25;6.55;;;15.80;99.90;;;;;;5045792;28;20078;-50
2023/05/10 11:11:58;;;;;;;6.50;5.88;;;15.90;99.90;;;;;;5047372;28;20495;-51
2023/05/10 11:14:24;;;;;;;6.65;6.05;;;15.90;99.90;;;;;;5047569;28;20111;-53
2023/05/10 11:16:50;;;;;;;8.23;7.35;;;15.90;99.90;;;;;;5048018;28;20055;-52
2023/05/10 11:19:17;;;;;;;7.65;6.60;;;15.80;99.90;;;;;;5047371;28;20456;-50
2023/05/10 11:21:47;;;;;;;7.65;6.30;;;15.90;99.90;;;;;;5045948;28;20108;-52
2023/05/10 11:24:22;;;;;;;7.63;6.82;;;15.90;99.90;;;;;;5046745;28;20025;-53
2023/05/10 11:26:51;;;;;;;8.23;6.63;;;16.00;99.90;;;;;;5045907;28;20021;-50
2023/05/10 11:29:17;;;;;;;8.68;6.95;;;16.00;99.90;;;;;;5046502;28;20096;-52
2023/05/10 11:31:47;;;;;;;6.70;6.03;;;16.00;99.90;;;;;;5035311;28;20068;-50
2023/05/10 11:34:30;;;;;;;7.35;6.55;;;16.00;99.90;;;;;;5046676;28;20184;-52
2023/05/10 11:36:56;;;;;;;8.40;6.63;;;16.00;99.90;;;;;;5044805;28;20037;-53
2023/05/10 11:39:29;;;;;;;6.75;6.15;;;16.00;99.90;;;;;;5047004;28;20108;-51
2023/05/10 11:41:55;;;;;;;7.47;6.35;;;16.00;99.90;;;;;;5046906;28;20032;-54
2023/05/10 11:44:21;;;;;;;7.20;6.53;;;16.00;99.90;;;;;;5046084;28;20086;-52
2023/05/10 11:46:47;;;;;;;6.70;6.10;;;16.00;99.90;;;;;;5047257;28;20036;-50
2023/05/10 11:49:13;;;;;;;7.05;6.43;;;16.00;99.90;;;;;;5047020;28;20029;-50
2023/05/10 11:51:43;;;;;;;7.07;6.38;;;16.10;99.90;;;;;;5047588;28;20036;-52
2023/05/10 11:54:11;;;;;;;7.03;6.25;;;16.10;99.90;;;;;;5047552;28;20017;-49
2023/05/10 11:56:38;;;;;;;7.60;6.43;;;16.20;99.90;;;;;;5046959;28;20395;-53
2023/05/10 11:59:03;;;;;;;7.38;6.40;;;16.30;99.90;;;;;;5046456;28;20656;-53
2023/05/10 12:01:30;;;;;;;7.60;6.60;;;16.30;99.90;;;;;;5047159;28;20037;-51
2023/05/10 12:03:59;;;;;;;7.32;6.65;;;16.30;99.90;;;;;;5046797;28;20029;-51
2023/05/10 12:06:36;;;;;;;9.48;7.28;;;16.30;99.90;;;;;;5046500;28;20021;-51
2023/05/10 12:09:06;;;;;;;7.45;6.68;;;16.40;99.90;;;;;;5028974;28;20028;-53
2023/05/10 12:11:32;;;;;;;7.18;6.45;;;16.40;99.90;;;;;;5046475;28;20017;-52
2023/05/10 12:13:57;;;;;;;7.75;6.93;;;16.30;99.90;;;;;;5046594;28;20021;-53
2023/05/10 12:16:28;;;;;;;6.53;5.93;;;16.30;99.90;;;;;;5046459;28;20021;-58
2023/05/10 12:18:57;;;;;;;6.72;6.10;;;16.30;99.90;;;;;;5046716;28;20068;-55
2023/05/10 12:21:23;;;;;;;6.85;6.20;;;16.10;99.90;;;;;;5047939;28;20063;-51
2023/05/10 12:23:51;;;;;;;8.80;6.88;;;16.10;99.90;;;;;;5050269;28;20490;-55
2023/05/10 12:26:17;;;;;;;7.95;7.10;;;16.10;99.90;;;;;;5050621;28;20061;-55
2023/05/10 12:28:42;;;;;;;7.63;6.93;;;16.10;99.90;;;;;;5050462;28;20033;-51
2023/05/10 12:31:08;;;;;;;8.77;6.97;;;16.10;99.90;;;;;;5050030;28;20052;-51
2023/05/10 12:33:42;;;;;;;9.10;8.18;;;16.10;99.90;;;;;;5033202;28;20154;-50
2023/05/10 12:36:08;;;;;;;8.52;7.72;;;16.10;99.90;;;;;;5049292;28;20052;-53
2023/05/10 12:38:37;;;;;;;9.20;8.30;;;16.10;99.90;;;;;;5049794;28;20025;-51
2023/05/10 12:41:08;;;;;;;8.88;8.02;;;16.20;99.90;;;;;;5050751;28;20390;-53
2023/05/10 12:43:34;;;;;;;9.30;7.90;;;16.20;99.90;;;;;;5049657;28;20458;-53
2023/05/10 12:46:13;;;;;;;8.25;7.45;;;16.30;99.90;;;;;;5050435;28;20086;-51
2023/05/10 12:48:40;;;;;;;7.75;6.95;;;16.40;99.90;;;;;;5049077;28;20387;-52
2023/05/10 12:51:09;;;;;;;8.07;7.15;;;16.40;99.90;;;;;;5050237;28;20415;-54
2023/05/10 12:53:35;;;;;;;7.88;7.18;;;16.50;99.90;;;;;;5050006;28;20510;-52